ADDS METAR Data INFO
IDs: Format: Raw Decoded Include TAF

Data at: 0854 UTC 19 Jun 2018

KRUG 190835Z AUTO 01006KT 10SM SCT120 16/14 A3010 RMK AO2
KRUG 190815Z AUTO 36006KT 10SM FEW120 16/14 A3011 RMK AO2
KRUG 190755Z AUTO 36004KT 10SM FEW120 16/15 A3010 RMK AO2
KRUG 190735Z AUTO 3/16000003KT 10SM SCT110 16/15 A3009 RMK AO2
KRUG 190715Z AUTO 03005KT 10SM FEW120 16/15 A3010 RMK AO2
KRUG 190655Z AUTO 02006KT 10SM CLR 16/16 A3011 RMK AO2
KRUG 190635Z AUTO 02004KT 10SM CLR 16/16 A3012 RMK AO2
KRUG 190615Z AUTO 00000KT 10SM CLR 16/14 A3012 RMK AO2
KRUG 190555Z AUTO 00000KT 10SM CLR 16/15 A3013 RMK AO2
KRUG 190535Z AUTO 00000KT 10SM CLR 17/15 A3013 RMK AO2
KRUG 190515Z AUTO 00000KT 10SM CLR 17/14 A3013 RMK AO2
KRUG 190455Z AUTO 00000KT 10SM CLR 17/14 A3013 RMK AO2
KRUG 190435Z AUTO 00000KT 10SM CLR 17/14 A3014 RMK AO2
KRUG 190415Z AUTO 00000KT 10SM CLR 17/14 A3013 RMK AO2
KRUG 190355Z AUTO 06003KT 10SM CLR 17/13 A3013 RMK AO2
KRUG 190335Z AUTO 00000KT 10SM CLR 17/14 A3013 RMK AO2
KRUG 190315Z AUTO 00000KT 10SM CLR 17/14 A3012 RMK AO2
KRUG 190255Z AUTO 12004KT 10SM CLR 17/14 A3012 RMK AO2
KRUG 190235Z AUTO 11003KT 10SM CLR 19/12 A3012 RMK AO2
KRUG 190215Z AUTO 11003KT 10SM CLR 20/12 A3012 RMK AO2
KRUG 190155Z AUTO 10004KT 10SM CLR 20/12 A3012 RMK AO2
KRUG 190135Z AUTO 07003KT 10SM CLR 21/12 A3011 RMK AO2
KRUG 190115Z AUTO 07006KT 10SM CLR 21/11 A3011 RMK AO2
KRUG 190055Z AUTO 07005KT 10SM CLR 22/11 A3010 RMK AO2
KRUG 190035Z AUTO 07007KT 10SM CLR 22/10 A3010 RMK AO2
KRUG 190015Z AUTO 07008KT 10SM CLR 22/10 A3010 RMK AO2
KRUG 182355Z AUTO 08008KT 10SM CLR 23/09 A3010 RMK AO2
KRUG 182335Z AUTO 06011KT 10SM CLR 23/08 A3010 RMK AO2
KRUG 182315Z AUTO 06011KT 10SM CLR 24/08 A3010 RMK AO2
KRUG 182255Z AUTO 07011KT 10SM CLR 24/08 A3011 RMK AO2
KRUG 182235Z AUTO 09012KT 10SM CLR 24/08 A3011 RMK AO2
KRUG 182215Z AUTO 05010KT 10SM CLR 24/07 A3011 RMK AO2
KRUG 182155Z AUTO 08009G19KT 10SM CLR 24/08 A3012 RMK AO2
KRUG 182135Z AUTO 07009G16KT 10SM CLR 24/09 A3012 RMK AO2
KRUG 182115Z AUTO 05011KT 10SM CLR 24/08 A3013 RMK AO2
KRUG 182055Z AUTO 07009G14KT 10SM FEW065 23/09 A3014 RMK AO2
KRUG 182035Z AUTO 08008G15KT 10SM FEW065 23/08 A3014 RMK AO2
KRUG 182015Z AUTO 09012KT 10SM CLR 24/08 A3014 RMK AO2
KRUG 181955Z AUTO 06010G15KT 10SM CLR 24/07 A3014 RMK AO2
KRUG 181935Z AUTO 08013KT 10SM CLR 24/06 A3014 RMK AO2
KRUG 181915Z AUTO 09011G17KT 10SM CLR 24/07 A3014 RMK AO2
KRUG 181855Z AUTO 08012G17KT 10SM CLR 24/06 A3015 RMK AO2
KRUG 181835Z AUTO 06013G18KT 10SM CLR 23/06 A3015 RMK AO2
KRUG 181815Z AUTO 05013G19KT 10SM CLR 23/07 A3015 RMK AO2
KRUG 181755Z AUTO 07016KT 10SM CLR 23/06 A3015 RMK AO2
KRUG 181735Z AUTO 07016KT 10SM CLR 23/07 A3015 RMK AO2
KRUG 181715Z AUTO 06011G18KT 10SM CLR 23/08 A3016 RMK AO2
KRUG 181655Z AUTO 05011G17KT 10SM CLR 23/08 A3016 RMK AO2
KRUG 181635Z AUTO 06012G18KT 10SM CLR 23/07 A3016 RMK AO2
KRUG 181615Z AUTO 07010KT 10SM CLR 23/08 A3016 RMK AO2
KRUG 181555Z AUTO 06013KT 10SM CLR 23/08 A3016 RMK AO2
KRUG 181515Z AUTO 05012KT 10SM CLR 22/07 A3015 RMK AO2
KRUG 181455Z AUTO 05011KT 10SM CLR 21/08 A3015 RMK AO2
KRUG 181435Z AUTO 05009KT 10SM CLR 21/10 A3016 RMK AO2
KRUG 181415Z AUTO 05007KT 10SM CLR 20/10 A3016 RMK AO2
KRUG 181355Z AUTO 06008KT 10SM CLR 20/11 A3016 RMK AO2
KRUG 181335Z AUTO 06004KT 10SM CLR 19/13 A3016 RMK AO2
KRUG 181315Z AUTO 00000KT 10SM CLR 18/14 A3016 RMK AO2
KRUG 181255Z AUTO 00000KT 10SM CLR 17/13 A3015 RMK AO2
KRUG 181235Z AUTO 00000KT 10SM CLR 16/13 A3015 RMK AO2
KRUG 181215Z AUTO 00000KT 10SM CLR 15/14 A3015 RMK AO2
KRUG 181155Z AUTO 00000KT 10SM CLR 14/14 A3014 RMK AO2
KRUG 181135Z AUTO 00000KT 10SM CLR 12/13 A3014 RMK AO2
KRUG 181115Z AUTO 00000KT 10SM CLR 12/12 A3014 RMK AO2
KRUG 181055Z AUTO 00000KT 10SM CLR 12/12 A3013 RMK AO2
KRUG 181035Z AUTO 08004KT 10SM CLR 11/11 A3013 RMK AO2
KRUG 181015Z AUTO 08005KT 10SM CLR 11/11 A3012 RMK AO2
KRUG 180955Z AUTO 09004KT 10SM CLR 11/11 A3012 RMK AO2
KRUG 180935Z AUTO 00000KT 10SM CLR 13/13 A3012 RMK AO2
KRUG 180915Z AUTO 14004KT 10SM CLR 13/13 A3011 RMK AO2
KRUG 180855Z AUTO 00000KT 10SM CLR 13/13 A3011 RMK AO2
KRUG 180835Z AUTO 10005KT 10SM CLR 13/13 A3010 RMK AO2
KRUG 180815Z AUTO 00000KT 10SM CLR 13/13 A3009 RMK AO2
KRUG 180755Z AUTO 00000KT 10SM CLR 14/14 A3009 RMK AO2
KRUG 180735Z AUTO 08003KT 10SM CLR 13/13 A3009 RMK AO2
KRUG 180715Z AUTO 07006KT 10SM CLR 12/12 A3009 RMK AO2
KRUG 180655Z AUTO 08004KT 10SM CLR 12/12 A3009 RMK AO2
KRUG 180635Z AUTO 00000KT 10SM CLR 13/13 A3009 RMK AO2
KRUG 180615Z AUTO 00000KT 10SM CLR 15/13 A3008 RMK AO2
KRUG 180555Z AUTO 00000KT 10SM CLR 14/13 A3008 RMK AO2
KRUG 180535Z AUTO 00000KT 10SM CLR 14/13 A3007 RMK AO2
KRUG 180515Z AUTO 00000KT 10SM CLR 16/13 A3007 RMK AO2
KRUG 180455Z AUTO 00000KT 10SM CLR 16/14 A3007 RMK AO2
KRUG 180435Z AUTO 00000KT 10SM CLR 15/14 A3007 RMK AO2
KRUG 180415Z AUTO 25004KT 10SM CLR 16/14 A3006 RMK AO2
KRUG 180355Z AUTO 00000KT 10SM CLR 17/14 A3006 RMK AO2
KRUG 180335Z AUTO 00000KT 10SM CLR 18/14 A3006 RMK AO2
KRUG 180315Z AUTO 00000KT 10SM CLR 18/13 A3005 RMK AO2
KRUG 180255Z AUTO 00000KT 10SM CLR 19/14 A3005 RMK AO2
KRUG 180235Z AUTO 00000KT 10SM CLR 20/14 A3004 RMK AO2
KRUG 180215Z AUTO 00000KT 10SM CLR 20/14 A3003 RMK AO2
KRUG 180155Z AUTO 00000KT 10SM CLR 21/13 A3003 RMK AO2
KRUG 180135Z AUTO 00000KT 10SM CLR 22/11 A3003 RMK AO2
KRUG 180115Z AUTO 04003KT 10SM CLR 22/11 A3002 RMK AO2
KRUG 180055Z AUTO 05004KT 10SM CLR 22/12 A3002 RMK AO2
KRUG 180035Z AUTO 00000KT 10SM CLR 22/10 A3002 RMK AO2
KRUG 180015Z AUTO 05004KT 10SM CLR 22/11 A3002 RMK AO2
KRUG 172355Z AUTO 03006KT 10SM CLR 22/11 A3002 RMK AO2
KRUG 172335Z AUTO 03005KT 10SM CLR 22/10 A3003 RMK AO2
KRUG 172315Z AUTO 02006KT 10SM CLR 22/10 A3003 RMK AO2
KRUG 172255Z AUTO 01006KT 10SM CLR 22/10 A3002 RMK AO2
KRUG 172235Z AUTO 02007KT 10SM CLR 22/10 A3002 RMK AO2
KRUG 172215Z AUTO 02010KT 10SM CLR 22/10 A3001 RMK AO2
KRUG 172155Z AUTO 03009KT 10SM FEW055 22/10 A3002 RMK AO2
KRUG 172135Z AUTO 36010KT 10SM CLR 22/10 A3002 RMK AO2
KRUG 172115Z AUTO 36007KT 10SM CLR 22/09 A3002 RMK AO2
KRUG 172055Z AUTO 02009KT 10SM CLR 22/09 A3002 RMK AO2